CHYO2: Washita River, OK

Data processed at Wed May 22 2019 23:50


All information presented herein is the property of the government of the United States of America and may be revised or deleted at any time without prior notice.
Dissemination of this information without the expressed written consent of the Public Affairs Office, Tulsa District U.S. Army Corps of Engineers is strictly prohibited.
These data are gathered electronically and, as presented, have not undergone any form of quality control. These data are not guaranteed to be valid or correct.
Go to home page.
Go to station list.
Go to home page.

Downstream station:


Previous Day
Next Day
Current Day
    
SHEF ID:       CHYO2     Washita River near Cheyenne, OK
STATION TYPE:  
Regulating: Stage =    13.50, Flow =     1132

               PRECIP PRECIP(A)     STAGE  RIV-FLOW
                   in        in        ft       cfs
              Ccp-Rev   Ccp-Rev   Ccp-Rev   Ccp-Rev
(US/Central)
05/22 00:00      0.00      0.00     10.67       257
05/22 01:00      0.00      0.00     10.64       252
05/22 02:00      0.00      0.00     10.62       249
05/22 03:00      0.00      0.00     10.59       244
05/22 04:00      0.00      0.00     10.56       240
05/22 05:00      0.00      0.00     10.49       229
05/22 06:00      0.00      0.00     10.50       231
05/22 07:00      0.00      0.00     10.48       228
05/22 08:00      0.00      0.00     10.46       225
05/22 09:00      0.00      0.00     10.36       211
05/22 10:00      0.00      0.00     10.39       215
05/22 11:00      0.00      0.00     10.37       212
05/22 12:00      0.00      0.00     10.29       201
05/22 13:00      0.00      0.00     10.29       201
05/22 14:00      0.00      0.00     10.24       195
05/22 15:00      0.00      0.00     10.20       190
05/22 16:00      0.00      0.00     10.15       184
05/22 17:00      0.00      0.00     10.10       179
05/22 18:00      0.00      0.00     10.04       172
05/22 19:00      0.00      0.00      9.97       164
05/22 20:00      0.00      0.00      9.89       156
05/22 21:00      0.00      0.00      9.84       151
05/22 22:00      0.00      0.00      9.76       143
05/22 23:00      0.00      0.00      9.70       137